< Cyclone 201720 2017 Season Cyclone 201723 >
Cyclone 201722 (Unnamed)
General InformationTrack Information on Google MapsDetailed Wind InformationList of All Images || ResourceGoogle EarthGE AnimationAtom FeedGeoJSON
Detalied Best Track (Time Zone = UTC)
Year Month Day Hour Lat. Long. Pressure (hPa) Wind (kt) Class Image Chart
2017 3 19 12 -13.1 122.0 1007 20 2 Image --
2017 3 19 18 -13.1 120.8 1007 20 2 Image --
2017 3 20 00 -13.4 119.0 1007 20 2 Image --
2017 3 20 06 -13.5 118.6 1005 25 2 Image --
2017 3 20 12 -14.0 118.2 1005 30 2 Image --
2017 3 20 18 -14.6 117.8 1005 30 2 Image --
2017 3 21 00 -15.3 117.7 1005 30 2 Image --
2017 3 21 06 -16.1 117.7 1004 30 2 Image --
2017 3 21 12 -17.0 117.4 1003 30 2 Image --
2017 3 21 18 -17.3 117.1 1003 30 2 Image --
2017 3 22 00 -17.3 117.0 1002 25 2 Image --
2017 3 22 06 -17.5 116.8 1002 25 2 Image --
2017 3 22 12 -18.0 117.3 1002 30 2 Image --
2017 3 22 18 -18.6 118.0 1002 30 2 Image --
2017 3 23 00 -19.4 118.3 998 35 3 Image --
2017 3 23 01 -19.6 118.4 995 40 3 Image --
2017 3 23 02 -19.7 118.4 990 45 3 Image --
2017 3 23 03 -19.9 118.4 985 50 4 Image --
2017 3 23 04 -20.0 118.5 985 50 4 Image --
2017 3 23 05 -20.2 118.5 985 50 4 Image --
2017 3 23 06 -20.4 118.4 989 45 3 Image --
2017 3 23 07 -20.5 118.5 993 40 3 Image --
2017 3 23 08 -20.6 118.6 992 40 3 Image --
2017 3 23 09 -20.7 118.7 992 40 3 Image --
2017 3 23 10 -20.9 118.9 996 35 3 Image --
2017 3 23 11 -21.0 119.1 999 30 2 Image --
2017 3 23 12 -21.3 119.2 998 30 2 Image --
2017 3 23 18 -22.4 119.2 1000 20 2 Image --
< Cyclone 201720 2017 Season Cyclone 201723 >

Help